Time;durP1;ratioP1;P1;durP2;ratioP2;P2;SDS_P1;SDS_P2;PMS_P1;PMS_P2;Temp;Humidity;BMP_temperature;BMP_pressure;BME280_temperature;BME280_humidity;BME280_pressure;Samples;Min_cycle;Max_cycle;Signal;HPM_P1;HPM_P2
2021/04/11 00:02:08;;;;;;;14.03;12.63;;;11.20;16.70;;;;;;5068459;28;20229;-65
2021/04/11 00:04:34;;;;;;;13.83;12.20;;;11.30;1.00;;;;;;5067676;28;20250;-65
2021/04/11 00:06:59;;;;;;;15.03;11.83;;;11.30;1.00;;;;;;5068685;28;20736;-65
2021/04/11 00:09:25;;;;;;;13.53;12.20;;;11.30;1.00;;;;;;5068539;28;20259;-65
2021/04/11 00:11:50;;;;;;;13.40;12.03;;;11.30;1.00;;;;;;5068351;28;20192;-65
2021/04/11 00:14:16;;;;;;;13.43;12.13;;;11.30;1.00;;;;;;5068324;28;20984;-66
2021/04/11 00:16:41;;;;;;;13.03;11.83;;;11.30;1.00;;;;;;5068342;28;20213;-66
2021/04/11 00:19:07;;;;;;;11.93;10.83;;;11.40;1.00;;;;;;5069191;28;20192;-66
2021/04/11 00:21:32;;;;;;;12.93;11.63;;;11.40;99.90;;;;;;5062096;28;20694;-65
2021/04/11 00:23:58;;;;;;;13.00;11.80;;;11.50;99.90;;;;;;5069287;28;20234;-66
2021/04/11 00:26:24;;;;;;;13.57;12.10;;;11.50;99.90;;;;;;5067774;28;20208;-66
2021/04/11 00:28:49;;;;;;;14.10;12.07;;;11.50;99.90;;;;;;5068239;28;20198;-66
2021/04/11 00:31:15;;;;;;;13.63;12.13;;;11.50;99.90;;;;;;5068720;28;20185;-66
2021/04/11 00:33:44;;;;;;;12.77;11.47;;;11.50;99.90;;;;;;5068384;28;20189;-65
2021/04/11 00:36:16;;;;;;;13.13;11.73;;;11.50;99.90;;;;;;5067659;28;20257;-67
2021/04/11 00:38:42;;;;;;;13.20;11.90;;;11.60;65.20;;;;;;5068742;28;20466;-65
2021/04/11 00:41:23;;;;;;;13.33;12.03;;;11.50;84.30;;;;;;5067427;28;20439;-65
2021/04/11 00:43:49;;;;;;;12.53;11.17;;;11.50;41.50;;;;;;5069078;28;20462;-65
2021/04/11 00:46:36;;;;;;;12.60;11.40;;;11.60;1.00;;;;;;5068030;28;20450;-65
2021/04/11 00:49:02;;;;;;;13.40;11.40;;;11.50;1.00;;;;;;5068771;28;20558;-64
2021/04/11 00:51:31;;;;;;;15.07;12.70;;;11.50;1.00;;;;;;5068315;28;20451;-66
2021/04/11 00:54:03;;;;;;;13.70;12.27;;;11.40;1.00;;;;;;5067965;28;20904;-65
2021/04/11 00:56:32;;;;;;;12.70;11.50;;;11.50;1.00;;;;;;5064854;28;20458;-64
2021/04/11 00:58:58;;;;;;;13.03;11.73;;;11.40;1.00;;;;;;5068026;28;20450;-66
2021/04/11 01:01:24;;;;;;;13.43;10.57;;;11.50;1.00;;;;;;5064572;28;20471;-67
2021/04/11 01:03:51;;;;;;;12.90;11.30;;;11.50;1.00;;;;;;5073653;28;20208;-66
2021/04/11 01:06:21;;;;;;;11.83;10.63;;;11.50;1.00;;;;;;5074373;28;20940;-67
2021/04/11 01:08:51;;;;;;;12.50;11.20;;;11.50;1.00;;;;;;5052159;28;20515;-67
2021/04/11 01:11:20;;;;;;;14.10;11.13;;;11.50;1.00;;;;;;5068231;28;20435;-66
2021/04/11 01:13:52;;;;;;;12.10;11.00;;;11.50;1.00;;;;;;5069560;28;20466;-66
2021/04/11 01:16:19;;;;;;;13.67;10.40;;;11.60;1.00;;;;;;5070916;28;20427;-65
2021/04/11 01:18:48;;;;;;;11.00;9.80;;;11.60;1.00;;;;;;5071519;28;20443;-66
2021/04/11 01:21:51;;;;;;;13.20;10.63;;;11.60;1.00;;;;;;5071606;28;20430;-65
2021/04/11 01:24:32;;;;;;;10.60;9.60;;;11.60;1.00;;;;;;5068190;28;20478;-67
2021/04/11 01:26:58;;;;;;;11.10;9.90;;;11.60;1.00;;;;;;5058403;28;20438;-66
2021/04/11 01:29:23;;;;;;;11.50;10.30;;;11.70;1.00;;;;;;5071926;28;20438;-66
2021/04/11 01:31:50;;;;;;;11.70;10.50;;;11.60;1.00;;;;;;5069993;28;20185;-66
2021/04/11 01:34:16;;;;;;;11.60;10.10;;;11.70;1.00;;;;;;5072536;28;20225;-66
2021/04/11 01:36:47;;;;;;;12.03;10.10;;;11.70;1.00;;;;;;5070093;28;20482;-66
2021/04/11 01:39:19;;;;;;;11.37;10.20;;;11.70;1.00;;;;;;5071924;28;20185;-66
2021/04/11 01:41:45;;;;;;;10.23;9.27;;;11.80;1.00;;;;;;5070612;28;20933;-67
2021/04/11 01:44:15;;;;;;;11.00;9.87;;;11.70;1.00;;;;;;5071803;28;20562;-67
2021/04/11 01:46:41;;;;;;;11.53;10.40;;;11.70;1.00;;;;;;5059112;28;20488;-65
2021/04/11 01:49:06;;;;;;;12.00;10.73;;;11.80;99.90;;;;;;5070366;28;20470;-66
2021/04/11 01:51:38;;;;;;;11.77;10.57;;;11.80;99.90;;;;;;5070992;28;20193;-66
2021/04/11 01:54:08;;;;;;;13.60;10.80;;;11.80;99.90;;;;;;5067942;28;20197;-66
2021/04/11 01:56:34;;;;;;;11.50;10.40;;;11.80;99.90;;;;;;5069852;28;20447;-66
2021/04/11 01:59:00;;;;;;;11.60;10.40;;;11.80;99.90;;;;;;5072029;28;20437;-67
2021/04/11 02:01:32;;;;;;;12.30;11.10;;;11.70;99.90;;;;;;5070477;28;20233;-66
2021/04/11 02:04:00;;;;;;;11.40;10.30;;;11.70;99.90;;;;;;5070117;28;20217;-67
2021/04/11 02:06:27;;;;;;;12.37;11.03;;;11.70;99.90;;;;;;5070880;28;20442;-67
2021/04/11 02:09:04;;;;;;;11.40;10.30;;;11.70;99.90;;;;;;5071079;28;20437;-67
2021/04/11 02:11:30;;;;;;;11.60;10.40;;;11.60;99.90;;;;;;5070167;28;20518;-67
2021/04/11 02:13:58;;;;;;;11.53;10.30;;;11.70;99.90;;;;;;5070264;28;20550;-66
2021/04/11 02:16:27;;;;;;;11.47;10.27;;;11.70;99.90;;;;;;5069246;28;20262;-66
2021/04/11 02:19:15;;;;;;;12.60;11.30;;;11.70;99.90;;;;;;5067123;28;20428;-66
2021/04/11 02:21:44;;;;;;;11.97;10.77;;;11.70;99.90;;;;;;5068833;28;20471;-66
2021/04/11 02:24:10;;;;;;;11.60;10.40;;;11.70;99.90;;;;;;5069209;28;20455;-67
2021/04/11 02:26:38;;;;;;;12.27;11.17;;;11.70;99.90;;;;;;5069410;28;20443;-67
2021/04/11 02:29:09;;;;;;;11.73;10.53;;;11.70;99.90;;;;;;5060396;28;20452;-67
2021/04/11 02:31:35;;;;;;;12.73;10.40;;;11.70;99.90;;;;;;5067169;28;20522;-67
2021/04/11 02:34:07;;;;;;;12.90;11.17;;;11.70;99.90;;;;;;5070394;28;20842;-67
2021/04/11 02:36:43;;;;;;;12.30;10.77;;;11.60;99.90;;;;;;5070904;28;20545;-67
2021/04/11 02:39:14;;;;;;;12.27;11.07;;;11.60;99.90;;;;;;5069981;28;20423;-66
2021/04/11 02:41:41;;;;;;;11.50;10.40;;;11.60;99.90;;;;;;5069783;28;20451;-66
2021/04/11 02:44:07;;;;;;;11.90;10.63;;;11.70;99.90;;;;;;5071003;28;20769;-67
2021/04/11 02:46:40;;;;;;;11.90;10.80;;;11.60;99.90;;;;;;5068976;28;20451;-67
2021/04/11 02:49:09;;;;;;;11.70;10.50;;;11.60;78.50;;;;;;5071222;28;20422;-67
2021/04/11 02:51:36;;;;;;;12.03;10.67;;;11.60;64.20;;;;;;5070999;28;20446;-66
2021/04/11 02:54:05;;;;;;;11.37;10.17;;;11.60;45.70;;;;;;5081107;28;20455;-66
2021/04/11 02:56:31;;;;;;;11.93;10.73;;;11.60;34.70;;;;;;5072023;28;20431;-67
2021/04/11 02:58:57;;;;;;;11.60;10.50;;;11.70;24.50;;;;;;5069260;28;20797;-66
2021/04/11 03:01:33;;;;;;;12.47;11.27;;;11.70;18.00;;;;;;5069468;28;21185;-66
2021/04/11 03:03:59;;;;;;;11.43;10.43;;;11.60;9.70;;;;;;5069657;28;20867;-66
2021/04/11 03:06:29;;;;;;;12.23;11.00;;;11.70;12.00;;;;;;5069665;28;20450;-66
2021/04/11 03:08:58;;;;;;;12.13;10.93;;;11.70;3.90;;;;;;5070051;28;20463;-66
2021/04/11 03:11:29;;;;;;;12.87;11.47;;;11.60;1.00;;;;;;5069261;28;20432;-67
2021/04/11 03:13:57;;;;;;;11.90;10.70;;;11.60;1.00;;;;;;5069723;28;20440;-67
2021/04/11 03:16:24;;;;;;;12.77;11.50;;;11.60;1.00;;;;;;5069162;28;20438;-66
2021/04/11 03:18:54;;;;;;;12.30;10.30;;;11.70;1.00;;;;;;5069347;28;20454;-67
2021/04/11 03:21:20;;;;;;;10.90;9.90;;;11.70;1.00;;;;;;5069811;28;20902;-66
2021/04/11 03:23:46;;;;;;;12.20;10.90;;;11.70;1.00;;;;;;5069702;28;20463;-66
2021/04/11 03:26:26;;;;;;;11.93;10.73;;;11.70;1.00;;;;;;5069862;28;20192;-67
2021/04/11 03:29:13;;;;;;;11.87;10.67;;;11.60;1.00;;;;;;5060636;28;20438;-67
2021/04/11 03:31:46;;;;;;;11.93;10.70;;;11.70;1.00;;;;;;5067527;28;20439;-67
2021/04/11 03:34:15;;;;;;;12.17;10.97;;;11.60;1.00;;;;;;5077223;28;20441;-66
2021/04/11 03:36:41;;;;;;;11.93;10.80;;;11.60;1.00;;;;;;5069257;28;20443;-66
2021/04/11 03:39:09;;;;;;;14.70;11.43;;;11.60;1.00;;;;;;5069409;28;20451;-67
2021/04/11 03:41:38;;;;;;;12.30;10.80;;;11.60;1.00;;;;;;5069293;28;20972;-66
2021/04/11 03:44:12;;;;;;;14.07;11.60;;;11.60;1.00;;;;;;5068681;28;21192;-67
2021/04/11 03:46:40;;;;;;;13.13;11.80;;;11.50;1.00;;;;;;5064885;28;20926;-66
2021/04/11 03:49:18;;;;;;;11.90;10.70;;;11.50;1.00;;;;;;5076270;28;20450;-67
2021/04/11 03:51:47;;;;;;;12.30;11.10;;;11.50;1.00;;;;;;5067798;28;20441;-66
2021/04/11 03:54:33;;;;;;;11.57;10.37;;;11.50;1.00;;;;;;5077781;28;21300;-66
2021/04/11 03:57:07;;;;;;;12.30;11.10;;;11.50;1.00;;;;;;5068094;28;20451;-67
2021/04/11 03:59:47;;;;;;;11.70;10.53;;;11.50;1.00;;;;;;5066872;28;21244;-67
2021/04/11 04:02:15;;;;;;;13.00;10.87;;;11.50;1.00;;;;;;5066881;28;20466;-67
2021/04/11 04:04:42;;;;;;;12.33;10.93;;;11.50;1.00;;;;;;5062643;28;20468;-67
2021/04/11 04:07:09;;;;;;;12.90;11.70;;;11.50;1.00;;;;;;5067763;28;20443;-67
2021/04/11 04:09:37;;;;;;;13.30;11.50;;;11.50;1.00;;;;;;5067943;28;20474;-66
2021/04/11 04:12:05;;;;;;;12.97;11.70;;;11.40;1.00;;;;;;5068539;28;20435;-66
2021/04/11 04:14:52;;;;;;;11.97;10.77;;;11.50;1.00;;;;;;5068919;28;20424;-67
2021/04/11 04:17:29;;;;;;;12.63;11.33;;;11.40;1.00;;;;;;5056600;28;20406;-67
2021/04/11 04:20:04;;;;;;;11.40;10.30;;;11.40;1.00;;;;;;5067597;28;20787;-66
2021/04/11 04:22:42;;;;;;;12.27;11.07;;;11.40;1.00;;;;;;5068129;28;20439;-67
2021/04/11 04:25:30;;;;;;;11.80;10.70;;;11.40;1.00;;;;;;5068469;28;20451;-67
2021/04/11 04:28:18;;;;;;;11.60;10.50;;;11.40;1.00;;;;;;5068028;28;20441;-68
2021/04/11 04:30:50;;;;;;;13.07;11.07;;;11.40;1.00;;;;;;5067839;28;20816;-68
2021/04/11 04:33:34;;;;;;;12.70;11.10;;;11.30;1.00;;;;;;5065942;28;20447;-67
2021/04/11 04:36:13;;;;;;;12.37;11.10;;;11.30;1.00;;;;;;5068883;28;20419;-67
2021/04/11 04:39:10;;;;;;;13.80;10.47;;;11.30;1.00;;;;;;5066733;28;20554;-67
2021/04/11 04:41:42;;;;;;;11.73;10.63;;;11.20;1.00;;;;;;5068225;28;20442;-66
2021/04/11 04:44:28;;;;;;;12.43;11.13;;;11.20;1.00;;;;;;5067169;28;20459;-66
2021/04/11 04:47:08;;;;;;;11.23;10.20;;;11.20;1.00;;;;;;5068211;28;20450;-66
2021/04/11 04:49:43;;;;;;;13.90;10.90;;;11.20;1.00;;;;;;5072108;28;20513;-66
2021/04/11 04:52:26;;;;;;;12.13;10.40;;;11.20;1.00;;;;;;5071252;28;20521;-66
2021/04/11 04:55:09;;;;;;;10.27;9.27;;;11.20;1.00;;;;;;5071535;28;20489;-67
2021/04/11 04:57:47;;;;;;;13.90;10.50;;;11.10;1.00;;;;;;5074568;28;21236;-66
2021/04/11 05:00:20;;;;;;;12.13;10.53;;;11.10;1.00;;;;;;5070382;28;20430;-67
2021/04/11 05:03:01;;;;;;;11.50;9.57;;;11.10;1.00;;;;;;5071548;28;20480;-66
2021/04/11 05:05:29;;;;;;;11.03;9.90;;;11.10;1.00;;;;;;5072857;28;20443;-66
2021/04/11 05:08:13;;;;;;;10.87;9.87;;;11.00;1.00;;;;;;5070420;28;20426;-67
2021/04/11 05:10:57;;;;;;;10.63;9.50;;;11.00;1.00;;;;;;5076953;28;20423;-67
2021/04/11 05:13:25;;;;;;;10.40;9.40;;;11.10;1.00;;;;;;5068518;28;20424;-67
2021/04/11 05:16:06;;;;;;;10.60;9.57;;;11.10;1.00;;;;;;5072605;28;20419;-67
2021/04/11 05:18:43;;;;;;;10.80;9.80;;;11.10;1.00;;;;;;5070527;28;20438;-67
2021/04/11 05:21:21;;;;;;;10.90;9.80;;;11.10;1.00;;;;;;5052141;28;20416;-66
2021/04/11 05:23:53;;;;;;;11.00;9.60;;;11.10;1.00;;;;;;5068013;28;20853;-67
2021/04/11 05:26:24;;;;;;;10.10;9.20;;;11.00;1.00;;;;;;5073399;28;20523;-67
2021/04/11 05:29:11;;;;;;;10.13;9.20;;;11.00;1.00;;;;;;5076348;28;20484;-67
2021/04/11 05:31:38;;;;;;;10.30;9.20;;;11.00;1.00;;;;;;5072087;28;20475;-67
2021/04/11 05:34:07;;;;;;;10.73;9.43;;;11.10;1.00;;;;;;5080356;28;20500;-67
2021/04/11 05:36:50;;;;;;;10.37;9.27;;;11.00;1.00;;;;;;5071129;28;20526;-66
2021/04/11 05:39:57;;;;;;;9.63;8.73;;;11.00;1.00;;;;;;5081266;28;20442;-68
2021/04/11 05:42:31;;;;;;;9.73;8.83;;;11.00;1.00;;;;;;5026951;28;20468;-67
2021/04/11 05:45:22;;;;;;;11.60;8.80;;;11.00;1.00;;;;;;5065501;28;20931;-67
2021/04/11 05:47:52;;;;;;;10.80;7.80;;;11.00;1.00;;;;;;5069610;28;20431;-67
2021/04/11 05:50:23;;;;;;;9.23;8.37;;;11.00;1.00;;;;;;5077127;28;20582;-67
2021/04/11 05:52:59;;;;;;;9.30;7.80;;;11.00;1.00;;;;;;5071936;28;20454;-66
2021/04/11 05:55:28;;;;;;;9.30;8.40;;;10.90;1.00;;;;;;5074747;28;20493;-66
2021/04/11 05:58:10;;;;;;;9.30;8.50;;;11.00;1.00;;;;;;5066170;28;20463;-65
2021/04/11 06:00:47;;;;;;;8.27;7.50;;;11.00;1.00;;;;;;5066106;28;20431;-67
2021/04/11 06:03:18;;;;;;;8.37;7.57;;;11.10;1.00;;;;;;5060044;28;20764;-67
2021/04/11 06:06:03;;;;;;;8.80;7.80;;;11.20;1.00;;;;;;5056774;28;21640;-66
2021/04/11 06:09:13;;;;;;;9.57;8.20;;;11.20;1.00;;;;;;5058076;28;22216;-66
2021/04/11 06:11:44;;;;;;;8.90;8.20;;;11.20;1.00;;;;;;5058893;28;20498;-66
2021/04/11 06:14:28;;;;;;;8.70;7.87;;;11.30;1.00;;;;;;5056573;28;20460;-66
2021/04/11 06:16:54;;;;;;;8.60;7.80;;;11.30;1.00;;;;;;5059659;28;20455;-66
2021/04/11 06:19:21;;;;;;;7.30;6.60;;;11.40;1.00;;;;;;5058173;28;20853;-68
2021/04/11 06:22:04;;;;;;;7.87;7.07;;;11.50;1.00;;;;;;5061202;28;20427;-68
2021/04/11 06:24:42;;;;;;;7.70;7.00;;;11.60;1.00;;;;;;5061781;28;20466;-68
2021/04/11 06:27:25;;;;;;;7.50;6.70;;;11.50;1.00;;;;;;5059381;28;20492;-68
2021/04/11 06:30:13;;;;;;;7.50;6.80;;;11.60;1.00;;;;;;5057808;28;21311;-68
2021/04/11 06:32:52;;;;;;;8.83;7.13;;;11.60;1.00;;;;;;5057981;28;20481;-66
2021/04/11 06:35:27;;;;;;;8.70;7.80;;;11.70;1.00;;;;;;5060806;28;20526;-67
2021/04/11 06:37:56;;;;;;;9.83;7.23;;;11.70;1.00;;;;;;5061218;28;20431;-66
2021/04/11 06:40:35;;;;;;;8.20;6.60;;;11.70;1.00;;;;;;5060444;28;20941;-66
2021/04/11 06:43:43;;;;;;;8.10;7.40;;;11.70;1.00;;;;;;5060182;28;20443;-59
2021/04/11 06:46:34;;;;;;;8.20;7.20;;;11.90;1.00;;;;;;5040223;28;21531;-60
2021/04/11 06:49:05;;;;;;;7.87;7.07;;;12.00;1.00;;;;;;5056675;28;20435;-60
2021/04/11 06:51:47;;;;;;;7.30;6.60;;;12.10;99.90;;;;;;5061742;28;20434;-60
2021/04/11 06:54:18;;;;;;;8.83;7.80;;;12.30;99.90;;;;;;5069676;28;20534;-60
2021/04/11 06:57:00;;;;;;;7.40;6.60;;;12.40;99.90;;;;;;5067607;28;20427;-59
2021/04/11 06:59:31;;;;;;;8.77;6.73;;;12.60;99.90;;;;;;5069024;28;21294;-59
2021/04/11 07:02:26;;;;;;;7.20;6.60;;;12.70;99.90;;;;;;5067711;28;20831;-59
2021/04/11 07:04:57;;;;;;;7.70;6.93;;;12.80;99.90;;;;;;5070038;28;20485;-59
2021/04/11 07:07:37;;;;;;;8.17;7.37;;;13.00;99.90;;;;;;5070292;28;20415;-60
2021/04/11 07:10:24;;;;;;;6.97;6.40;;;13.10;99.90;;;;;;5070206;28;20439;-60
2021/04/11 07:13:20;;;;;;;7.03;6.33;;;13.10;99.90;;;;;;5069488;28;20455;-60
2021/04/11 07:16:16;;;;;;;8.70;6.73;;;13.20;99.90;;;;;;5070330;28;20450;-60
2021/04/11 07:19:23;;;;;;;7.20;6.60;;;13.30;99.90;;;;;;5070610;28;20431;-60
2021/04/11 07:22:13;;;;;;;6.73;6.13;;;13.40;99.90;;;;;;5054183;28;20443;-60
2021/04/11 07:24:46;;;;;;;8.40;7.60;;;13.50;99.90;;;;;;5069861;28;20470;-61
2021/04/11 07:27:24;;;;;;;6.97;6.37;;;13.70;99.90;;;;;;5069175;28;20451;-61
2021/04/11 07:29:55;;;;;;;7.50;6.80;;;13.90;99.90;;;;;;5069105;28;20733;-60
2021/04/11 07:32:55;;;;;;;8.23;6.63;;;14.00;99.90;;;;;;5068921;28;20432;-60
2021/04/11 07:35:45;;;;;;;7.40;6.80;;;14.20;99.90;;;;;;5069739;28;20439;-60
2021/04/11 07:38:19;;;;;;;6.90;6.30;;;14.40;99.90;;;;;;5072280;28;21161;-60
2021/04/11 07:41:04;;;;;;;7.03;6.33;;;14.70;99.90;;;;;;5078426;28;20428;-61
2021/04/11 07:43:39;;;;;;;7.80;7.10;;;14.90;99.90;;;;;;5068827;28;20505;-60
2021/04/11 07:46:23;;;;;;;6.63;6.07;;;15.10;99.90;;;;;;5050175;28;20435;-60
2021/04/11 07:48:52;;;;;;;6.73;6.13;;;15.20;99.90;;;;;;5050029;28;20554;-60
2021/04/11 07:51:45;;;;;;;7.23;6.53;;;15.20;99.90;;;;;;5069817;28;20407;-59
2021/04/11 07:54:21;;;;;;;6.80;6.20;;;15.30;99.90;;;;;;5067991;28;20909;-60
2021/04/11 07:57:30;;;;;;;6.67;6.17;;;15.20;99.90;;;;;;5069782;28;20768;-60
2021/04/11 08:00:17;;;;;;;7.67;6.00;;;15.30;99.90;;;;;;5048766;28;20466;-60
2021/04/11 08:03:16;;;;;;;6.93;6.30;;;15.40;99.90;;;;;;5068190;28;20493;-60
2021/04/11 08:06:17;;;;;;;6.37;5.77;;;15.40;99.90;;;;;;5068739;28;20448;-60
2021/04/11 08:09:02;;;;;;;6.90;6.23;;;15.40;99.90;;;;;;5043137;28;20469;-61
2021/04/11 08:11:48;;;;;;;6.07;5.57;;;15.50;99.90;;;;;;5070082;28;20923;-60
2021/04/11 08:14:38;;;;;;;6.80;6.20;;;15.60;99.90;;;;;;5068124;28;20416;-61
2021/04/11 08:17:37;;;;;;;8.43;6.30;;;15.60;99.90;;;;;;5067924;28;20434;-59
2021/04/11 08:20:16;;;;;;;6.57;6.00;;;15.80;99.90;;;;;;5068150;28;20420;-60
2021/04/11 08:22:50;;;;;;;6.60;6.00;;;15.90;99.90;;;;;;5068584;28;20513;-60
2021/04/11 08:25:53;;;;;;;6.87;6.30;;;16.20;99.90;;;;;;5068748;28;20952;-59
2021/04/11 08:28:57;;;;;;;6.97;6.40;;;16.40;99.90;;;;;;5068720;28;20427;-60
2021/04/11 08:31:52;;;;;;;6.37;5.70;;;16.60;99.90;;;;;;5069462;28;20822;-60
2021/04/11 08:34:39;;;;;;;7.97;6.73;;;16.70;99.90;;;;;;5069498;28;20386;-60
2021/04/11 08:37:34;;;;;;;7.30;6.70;;;16.90;99.90;;;;;;5071415;28;20899;-59
2021/04/11 08:40:05;;;;;;;6.27;5.77;;;17.10;99.90;;;;;;5069950;28;20755;-60
2021/04/11 08:43:01;;;;;;;9.30;8.43;;;17.30;99.90;;;;;;5058321;28;20445;-60
2021/04/11 08:46:00;;;;;;;7.43;6.77;;;17.70;99.90;;;;;;5069080;28;20498;-59
2021/04/11 08:48:46;;;;;;;7.13;6.47;;;17.90;99.90;;;;;;5068558;28;20423;-60
2021/04/11 08:51:15;;;;;;;7.57;6.97;;;18.20;99.90;;;;;;5067777;28;20428;-60
2021/04/11 08:53:59;;;;;;;6.60;6.10;;;18.40;99.90;;;;;;5067866;28;20427;-59
2021/04/11 08:56:52;;;;;;;6.97;6.37;;;18.80;99.90;;;;;;5067439;28;20462;-61
2021/04/11 09:00:01;;;;;;;7.17;6.57;;;18.90;99.90;;;;;;5057941;28;20456;-61
2021/04/11 09:02:31;;;;;;;8.93;6.80;;;19.70;99.90;;;;;;5022997;28;21158;-61
2021/04/11 09:05:20;;;;;;;6.97;6.20;;;20.10;99.90;;;;;;5026588;28;20477;-60
2021/04/11 09:08:19;;;;;;;7.20;6.07;;;20.90;99.90;;;;;;5026202;28;20440;-60
2021/04/11 09:11:27;;;;;;;6.33;5.70;;;21.50;99.90;;;;;;5026502;28;20433;-61
2021/04/11 09:14:26;;;;;;;7.40;6.70;;;21.20;99.90;;;;;;4999581;28;20432;-61
2021/04/11 09:17:20;;;;;;;7.80;7.20;;;20.20;99.90;;;;;;5012459;28;20446;-60
2021/04/11 09:19:54;;;;;;;7.60;6.80;;;19.40;99.90;;;;;;5033311;28;20444;-60
2021/04/11 09:22:53;;;;;;;8.80;7.70;;;19.50;99.90;;;;;;5026358;28;20483;-60
2021/04/11 09:25:22;;;;;;;8.53;7.83;;;19.90;99.90;;;;;;5026261;28;20460;-60
2021/04/11 09:28:18;;;;;;;7.73;7.20;;;20.60;99.90;;;;;;5026127;28;20486;-59
2021/04/11 09:31:11;;;;;;;8.30;7.50;;;20.80;99.90;;;;;;5026249;28;20424;-60
2021/04/11 09:33:54;;;;;;;7.70;7.10;;;21.00;99.90;;;;;;5055405;28;20973;-60
2021/04/11 09:36:32;;;;;;;7.30;6.60;;;20.90;99.90;;;;;;5071289;28;20465;-60
2021/04/11 09:39:29;;;;;;;8.20;7.60;;;20.40;99.90;;;;;;5077604;28;20479;-60
2021/04/11 09:42:23;;;;;;;8.87;8.07;;;20.60;99.90;;;;;;5074294;28;20417;-60
2021/04/11 09:45:03;;;;;;;9.93;7.73;;;21.20;99.90;;;;;;5072121;28;20474;-60
2021/04/11 09:47:32;;;;;;;8.97;8.23;;;22.00;99.90;;;;;;5070344;28;20441;-60
2021/04/11 09:50:12;;;;;;;9.83;8.93;;;22.20;99.90;;;;;;5072018;28;20415;-59
2021/04/11 09:52:50;;;;;;;8.87;8.07;;;21.90;99.90;;;;;;5070373;28;20465;-60
2021/04/11 09:55:43;;;;;;;8.33;7.63;;;21.80;99.90;;;;;;5063381;28;20434;-60
2021/04/11 09:58:28;;;;;;;9.50;8.60;;;22.30;99.90;;;;;;5054348;28;20481;-59
2021/04/11 10:01:32;;;;;;;8.70;8.00;;;22.90;99.90;;;;;;5060634;28;20426;-59
2021/04/11 10:04:30;;;;;;;8.50;7.80;;;23.70;99.90;;;;;;5061802;28;20564;-60
2021/04/11 10:07:26;;;;;;;9.00;8.30;;;23.60;99.90;;;;;;5077547;28;20440;-62
2021/04/11 10:10:29;;;;;;;8.30;7.70;;;23.10;99.90;;;;;;5061176;28;20439;-61
2021/04/11 10:13:30;;;;;;;8.83;8.13;;;23.20;99.90;;;;;;5060941;28;20449;-61
2021/04/11 10:16:05;;;;;;;9.93;9.13;;;23.10;99.90;;;;;;5050419;28;20560;-62
2021/04/11 10:19:07;;;;;;;8.70;7.90;;;23.30;99.90;;;;;;5060589;28;20489;-62
2021/04/11 10:21:54;;;;;;;8.60;7.90;;;23.40;99.90;;;;;;5060869;28;21600;-62
2021/04/11 10:24:57;;;;;;;9.17;8.40;;;24.20;99.90;;;;;;5061298;28;20465;-62
2021/04/11 10:27:37;;;;;;;8.73;7.93;;;23.90;99.90;;;;;;5061350;28;20467;-62
2021/04/11 10:30:06;;;;;;;8.73;8.03;;;23.70;99.90;;;;;;5061637;28;20441;-63
2021/04/11 10:32:41;;;;;;;8.50;7.70;;;23.90;99.90;;;;;;5064875;28;20991;-62
2021/04/11 10:35:27;;;;;;;8.43;7.80;;;24.60;99.90;;;;;;5068445;28;20472;-65
2021/04/11 10:38:01;;;;;;;8.40;7.77;;;24.60;99.90;;;;;;5066926;28;20458;-65
2021/04/11 10:40:46;;;;;;;10.13;7.70;;;24.80;99.90;;;;;;5068710;28;20457;-65
2021/04/11 10:43:46;;;;;;;9.60;8.70;;;24.60;99.90;;;;;;5060431;28;20435;-65
2021/04/11 10:46:36;;;;;;;8.30;7.20;;;24.20;99.90;;;;;;5060134;28;20443;-65
2021/04/11 10:49:07;;;;;;;8.00;7.40;;;24.50;99.90;;;;;;5062946;28;20459;-65
2021/04/11 10:51:52;;;;;;;7.90;7.30;;;24.40;99.90;;;;;;5069530;28;20932;-66
2021/04/11 10:54:40;;;;;;;8.23;7.50;;;24.30;99.90;;;;;;5065231;28;20431;-65
2021/04/11 10:57:27;;;;;;;9.83;8.10;;;24.60;99.90;;;;;;5060308;28;20439;-66
2021/04/11 11:00:23;;;;;;;7.87;7.23;;;25.40;99.90;;;;;;5069150;28;20426;-63
2021/04/11 11:03:25;;;;;;;7.67;7.17;;;25.10;99.90;;;;;;5053928;28;20463;-64
2021/04/11 11:06:12;;;;;;;7.90;7.30;;;25.40;99.90;;;;;;5066460;28;21127;-65
2021/04/11 11:09:08;;;;;;;8.87;8.17;;;25.50;1.00;;;;;;5064599;28;20473;-62
2021/04/11 11:12:00;;;;;;;9.07;8.30;;;25.80;1.00;;;;;;5062579;28;20418;-65
2021/04/11 11:14:38;;;;;;;7.70;7.00;;;24.70;99.90;;;;;;5065219;28;20540;-62
2021/04/11 11:17:30;;;;;;;8.40;7.70;;;24.30;99.90;;;;;;5060800;28;20484;-61
2021/04/11 11:20:32;;;;;;;8.47;7.60;;;24.00;99.90;;;;;;5032939;28;20432;-63
2021/04/11 11:23:16;;;;;;;8.60;6.80;;;24.30;99.90;;;;;;5068283;28;20483;-65
2021/04/11 11:25:51;;;;;;;9.13;7.87;;;24.50;99.90;;;;;;5068152;28;20538;-65
2021/04/11 11:28:20;;;;;;;8.33;7.63;;;23.50;99.90;;;;;;5063087;28;20435;-65
2021/04/11 11:30:55;;;;;;;7.90;7.30;;;23.70;99.90;;;;;;5067960;28;20499;-66
2021/04/11 11:33:38;;;;;;;8.13;7.53;;;23.90;99.90;;;;;;5060070;28;20803;-62
2021/04/11 11:36:22;;;;;;;8.07;7.47;;;25.00;99.90;;;;;;5065526;28;20431;-62
2021/04/11 11:39:19;;;;;;;8.47;7.57;;;26.10;99.90;;;;;;5067375;28;20897;-62
2021/04/11 11:41:57;;;;;;;8.10;7.40;;;27.00;99.90;;;;;;5064418;28;20457;-61
2021/04/11 11:45:01;;;;;;;8.00;7.40;;;27.40;1.00;;;;;;5068240;28;20467;-63
2021/04/11 11:47:54;;;;;;;8.00;7.20;;;28.00;1.00;;;;;;5056832;28;20873;-63
2021/04/11 11:50:30;;;;;;;8.73;7.97;;;28.20;99.90;;;;;;5068204;28;20440;-63
2021/04/11 11:53:07;;;;;;;8.57;7.87;;;27.40;99.90;;;;;;5067393;28;20465;-66
2021/04/11 11:55:44;;;;;;;7.03;6.63;;;26.70;99.90;;;;;;5058769;28;21267;-63
2021/04/11 11:58:22;;;;;;;8.70;7.80;;;25.90;99.90;;;;;;5059150;28;20468;-65
2021/04/11 12:01:01;;;;;;;8.43;7.83;;;25.10;99.90;;;;;;5054726;28;20438;-64
2021/04/11 12:03:36;;;;;;;8.00;7.30;;;24.40;99.90;;;;;;5055967;28;20443;-64
2021/04/11 12:06:07;;;;;;;8.60;7.80;;;24.20;99.90;;;;;;5050765;28;20841;-62
2021/04/11 12:08:44;;;;;;;9.03;7.73;;;24.10;99.90;;;;;;5064231;28;20434;-66
2021/04/11 12:11:12;;;;;;;9.00;8.20;;;23.10;1.00;;;;;;5067403;28;20518;-68
2021/04/11 12:13:45;;;;;;;9.37;8.47;;;22.10;99.90;;;;;;5067633;28;20431;-61
2021/04/11 12:16:33;;;;;;;8.03;7.33;;;22.20;1.00;;;;;;5068275;28;20420;-66
2021/04/11 12:19:15;;;;;;;8.20;7.47;;;22.80;1.00;;;;;;5068153;28;20431;-64
2021/04/11 12:22:12;;;;;;;9.13;8.23;;;24.00;1.00;;;;;;5054150;28;20517;-67
2021/04/11 12:24:50;;;;;;;8.57;7.70;;;24.50;99.90;;;;;;5018387;28;20535;-67
2021/04/11 12:27:27;;;;;;;8.37;7.67;;;24.70;99.90;;;;;;5065998;28;20518;-64
2021/04/11 12:29:53;;;;;;;8.67;7.97;;;25.00;1.00;;;;;;5065769;28;20410;-64
2021/04/11 12:32:45;;;;;;;8.00;7.20;;;25.50;99.90;;;;;;5066877;28;20415;-61
2021/04/11 12:35:39;;;;;;;8.70;7.80;;;26.10;99.90;;;;;;5063353;28;20182;-62
2021/04/11 12:38:23;;;;;;;8.23;7.53;;;25.80;99.90;;;;;;5066499;28;20431;-64
2021/04/11 12:41:09;;;;;;;8.43;7.73;;;26.60;1.00;;;;;;5066589;28;20524;-62
2021/04/11 12:43:59;;;;;;;8.13;7.43;;;26.50;1.00;;;;;;5066904;28;20435;-64
2021/04/11 12:46:42;;;;;;;8.37;7.67;;;26.80;99.90;;;;;;5066030;28;20485;-63
2021/04/11 12:49:30;;;;;;;8.20;7.40;;;26.40;99.90;;;;;;5065613;28;20444;-64
2021/04/11 12:52:07;;;;;;;7.80;7.10;;;27.00;1.00;;;;;;5066595;28;20424;-63
2021/04/11 12:54:44;;;;;;;8.10;7.50;;;26.60;1.00;;;;;;5065601;28;20937;-61
2021/04/11 12:57:19;;;;;;;9.07;8.37;;;26.30;1.00;;;;;;5067261;28;20499;-62
2021/04/11 13:00:10;;;;;;;9.23;8.43;;;26.10;99.90;;;;;;5067237;28;20422;-63
2021/04/11 13:02:45;;;;;;;8.70;7.90;;;25.70;99.90;;;;;;5055871;28;20980;-62
2021/04/11 13:05:28;;;;;;;8.30;7.63;;;24.80;99.90;;;;;;5064902;28;20454;-61
2021/04/11 13:08:02;;;;;;;8.60;7.90;;;25.20;99.90;;;;;;5058726;28;20431;-61
2021/04/11 13:10:32;;;;;;;8.90;8.00;;;25.50;99.90;;;;;;5069614;28;20430;-62
2021/04/11 13:13:26;;;;;;;9.77;8.90;;;26.10;99.90;;;;;;5071465;28;20434;-61
2021/04/11 13:16:02;;;;;;;9.20;8.50;;;26.20;99.90;;;;;;5069555;28;20797;-61
2021/04/11 13:18:35;;;;;;;9.57;8.63;;;26.10;99.90;;;;;;5071170;28;20473;-62
2021/04/11 13:21:09;;;;;;;9.73;9.00;;;25.30;99.90;;;;;;5072440;28;20447;-62
2021/04/11 13:24:03;;;;;;;9.63;8.83;;;24.70;99.90;;;;;;5072733;28;20911;-62
2021/04/11 13:26:47;;;;;;;9.40;8.57;;;24.40;99.90;;;;;;5067125;28;20438;-61
2021/04/11 13:29:19;;;;;;;9.80;8.83;;;24.50;1.00;;;;;;5075757;28;20501;-60
2021/04/11 13:31:58;;;;;;;9.90;9.00;;;24.70;99.90;;;;;;5075649;28;20422;-61
2021/04/11 13:34:38;;;;;;;9.70;8.80;;;24.80;99.90;;;;;;5080616;28;20434;-62
2021/04/11 13:37:10;;;;;;;9.80;8.90;;;24.50;99.90;;;;;;5078564;28;20919;-63
2021/04/11 13:39:38;;;;;;;8.67;7.87;;;24.80;1.00;;;;;;5071957;28;20434;-62
2021/04/11 13:42:58;;;;;;;8.43;7.63;;;24.90;1.00;;;;;;5074282;28;20433;-62
2021/04/11 13:45:38;;;;;;;9.27;8.37;;;25.40;99.90;;;;;;5049244;28;20798;-63